Time;durP1;ratioP1;P1;durP2;ratioP2;P2;SDS_P1;SDS_P2;PMS_P1;PMS_P2;Temp;Humidity;BMP_temperature;BMP_pressure;BME280_temperature;BME280_humidity;BME280_pressure;Samples;Min_cycle;Max_cycle;Signal;HPM_P1;HPM_P2
2022/07/01 00:02:17;;;;;;;;;;;;;;;;;;5082114;28;1952;-64
2022/07/01 00:04:42;;;;;;;;;;;;;;;;;;5080708;28;882;-64
2022/07/01 00:07:07;;;;;;;;;;;;;;;;;;5081794;28;1282;-64
2022/07/01 00:09:33;;;;;;;;;;;;;;;;;;5082233;28;838;-64
2022/07/01 00:11:58;;;;;;;;;;;;;;;;;;5081828;28;953;-64
2022/07/01 00:14:23;;;;;;;;;;;;;;;;;;5082246;28;839;-64
2022/07/01 00:16:49;;;;;;;;;;;;;;;;;;5081421;28;1282;-64
2022/07/01 00:19:14;;;;;;;;;;;;;;;;;;5081987;28;908;-64
2022/07/01 00:21:39;;;;;;;;;;;;;;;;;;5081671;28;1961;-64
2022/07/01 00:24:04;;;;;;;;;;;;;;;;;;5081987;28;786;-64
2022/07/01 00:26:30;;;;;;;;;;;;;;;;;;5081217;28;1113;-64
2022/07/01 00:28:55;;;;;;;;;;;;;;;;;;5081831;28;906;-64
2022/07/01 00:31:20;;;;;;;;;;;;;;;;;;5081631;28;984;-64
2022/07/01 00:33:45;;;;;;;;;;;;;;;;;;5081407;28;909;-64
2022/07/01 00:36:10;;;;;;;;;;;;;;;;;;5081495;28;1282;-64
2022/07/01 00:38:36;;;;;;;;;;;;;;;;;;5081287;28;885;-64
2022/07/01 00:41:01;;;;;;;;;;;;;;;;;;5081633;28;795;-64
2022/07/01 00:43:26;;;;;;;;;;;;;;;;;;5081483;28;1960;-63
2022/07/01 00:45:52;;;;;;;;;;;;;;;;;;5081180;28;854;-64
2022/07/01 00:48:18;;;;;;;;;;;;;;;;;;5080474;28;1171;-64
2022/07/01 00:50:44;;;;;;;;;;;;;;;;;;5081373;28;976;-64
2022/07/01 00:53:09;;;;;;;;;;;;;;;;;;5081056;28;861;-64
2022/07/01 00:55:35;;;;;;;;;;;;;;;;;;5081400;28;886;-64
2022/07/01 00:58:00;;;;;;;;;;;;;;;;;;5079722;28;1290;-64
2022/07/01 01:00:28;;;;;;;;;;;;;;;;;;5080174;28;1044;-63
2022/07/01 01:02:54;;;;;;;;;;;;;;;;;;5081231;28;1898;-63
2022/07/01 01:05:21;;;;;;;;;;;;;;;;;;5081018;28;940;-64
2022/07/01 01:07:47;;;;;;;;;;;;;;;;;;5079661;28;1277;-64
2022/07/01 01:10:13;;;;;;;;;;;;;;;;;;5081055;28;857;-64
2022/07/01 01:12:38;;;;;;;;;;;;;;;;;;5081169;28;864;-64
2022/07/01 01:15:04;;;;;;;;;;;;;;;;;;5081167;28;786;-63
2022/07/01 01:17:29;;;;;;;;;;;;;;;;;;5080813;28;1184;-63
2022/07/01 01:19:54;;;;;;;;;;;;;;;;;;5080815;28;873;-64
2022/07/01 01:22:20;;;;;;;;;;;;;;;;;;5080902;28;1964;-64
2022/07/01 01:24:47;;;;;;;;;;;;;;;;;;5079591;28;1448;-64
2022/07/01 01:27:13;;;;;;;;;;;;;;;;;;5080726;28;1270;-64
2022/07/01 01:29:38;;;;;;;;;;;;;;;;;;5080948;28;794;-64
2022/07/01 01:32:05;;;;;;;;;;;;;;;;;;5080929;28;913;-64
2022/07/01 01:34:31;;;;;;;;;;;;;;;;;;5080616;28;912;-64
2022/07/01 01:36:56;;;;;;;;;;;;;;;;;;5080407;28;1191;-64
2022/07/01 01:39:21;;;;;;;;;;;;;;;;;;5080934;28;833;-63
2022/07/01 01:41:46;;;;;;;;;;;;;;;;;;5080534;28;1898;-65
2022/07/01 01:44:12;;;;;;;;;;;;;;;;;;5080828;28;905;-63
2022/07/01 01:46:38;;;;;;;;;;;;;;;;;;5080261;28;1252;-63
2022/07/01 01:49:05;;;;;;;;;;;;;;;;;;5080692;28;912;-64
2022/07/01 01:51:30;;;;;;;;;;;;;;;;;;5080432;28;893;-64
2022/07/01 01:53:56;;;;;;;;;;;;;;;;;;5080677;28;968;-63
2022/07/01 01:56:21;;;;;;;;;;;;;;;;;;5080054;28;1228;-64
2022/07/01 01:58:47;;;;;;;;;;;;;;;;;;5082762;28;981;-63
2022/07/01 02:01:12;;;;;;;;;;;;;;;;;;5084101;28;963;-64
2022/07/01 02:03:38;;;;;;;;;;;;;;;;;;5082352;28;2051;-64
2022/07/01 02:06:04;;;;;;;;;;;;;;;;;;5083975;28;1203;-64
2022/07/01 02:08:29;;;;;;;;;;;;;;;;;;5083554;28;794;-64
2022/07/01 02:10:54;;;;;;;;;;;;;;;;;;5083993;28;872;-63
2022/07/01 02:13:19;;;;;;;;;;;;;;;;;;5083610;28;1032;-64
2022/07/01 02:15:45;;;;;;;;;;;;;;;;;;5083883;28;798;-64
2022/07/01 02:18:10;;;;;;;;;;;;;;;;;;5083230;28;1286;-64
2022/07/01 02:20:35;;;;;;;;;;;;;;;;;;5083922;28;841;-64
2022/07/01 02:23:00;;;;;;;;;;;;;;;;;;5083521;28;1967;-64
2022/07/01 02:25:25;;;;;;;;;;;;;;;;;;5082306;28;1456;-63
2022/07/01 02:27:51;;;;;;;;;;;;;;;;;;5083353;28;1176;-63
2022/07/01 02:30:16;;;;;;;;;;;;;;;;;;5083556;28;989;-63
2022/07/01 02:32:42;;;;;;;;;;;;;;;;;;5083564;28;862;-64
2022/07/01 02:35:07;;;;;;;;;;;;;;;;;;5081954;28;1278;-64
2022/07/01 02:37:33;;;;;;;;;;;;;;;;;;5083185;28;1211;-64
2022/07/01 02:39:58;;;;;;;;;;;;;;;;;;5083356;28;1111;-64
2022/07/01 02:42:25;;;;;;;;;;;;;;;;;;5083526;28;1909;-64
2022/07/01 02:44:51;;;;;;;;;;;;;;;;;;5083305;28;900;-64
2022/07/01 02:47:16;;;;;;;;;;;;;;;;;;5082950;28;1208;-64
2022/07/01 02:49:41;;;;;;;;;;;;;;;;;;5083064;28;1039;-64
2022/07/01 02:52:07;;;;;;;;;;;;;;;;;;5083317;28;877;-64
2022/07/01 02:54:32;;;;;;;;;;;;;;;;;;5083210;28;809;-64
2022/07/01 02:56:57;;;;;;;;;;;;;;;;;;5082923;28;1203;-64
2022/07/01 02:59:22;;;;;;;;;;;;;;;;;;5083274;28;972;-64
2022/07/01 03:01:47;;;;;;;;;;;;;;;;;;5082821;28;1898;-64
2022/07/01 03:04:12;;;;;;;;;;;;;;;;;;5082952;28;1046;-64
2022/07/01 03:06:38;;;;;;;;;;;;;;;;;;5081246;28;1316;-64
2022/07/01 03:09:03;;;;;;;;;;;;;;;;;;5082749;28;797;-63
2022/07/01 03:11:28;;;;;;;;;;;;;;;;;;5082638;28;774;-63
2022/07/01 03:13:53;;;;;;;;;;;;;;;;;;5082930;28;798;-63
2022/07/01 03:16:18;;;;;;;;;;;;;;;;;;5082429;28;1265;-63
2022/07/01 03:18:44;;;;;;;;;;;;;;;;;;5082750;28;874;-63
2022/07/01 03:21:09;;;;;;;;;;;;;;;;;;5082602;28;786;-63
2022/07/01 03:23:34;;;;;;;;;;;;;;;;;;5082795;28;1962;-63
2022/07/01 03:25:59;;;;;;;;;;;;;;;;;;5082565;28;1183;-63
2022/07/01 03:28:24;;;;;;;;;;;;;;;;;;5082299;28;916;-63
2022/07/01 03:30:50;;;;;;;;;;;;;;;;;;5082679;28;996;-63
2022/07/01 03:33:15;;;;;;;;;;;;;;;;;;5082340;28;1000;-63
2022/07/01 03:35:40;;;;;;;;;;;;;;;;;;5082619;28;1043;-64
2022/07/01 03:38:06;;;;;;;;;;;;;;;;;;5082102;28;1283;-63
2022/07/01 03:40:31;;;;;;;;;;;;;;;;;;5082570;28;920;-63
2022/07/01 03:42:56;;;;;;;;;;;;;;;;;;5082257;28;1959;-64
2022/07/01 03:45:22;;;;;;;;;;;;;;;;;;5082530;28;802;-64
2022/07/01 03:47:48;;;;;;;;;;;;;;;;;;5081982;28;1116;-64
2022/07/01 03:50:14;;;;;;;;;;;;;;;;;;5082708;28;798;-63
2022/07/01 03:52:41;;;;;;;;;;;;;;;;;;5082518;28;851;-63
2022/07/01 03:55:07;;;;;;;;;;;;;;;;;;5082126;28;901;-63
2022/07/01 03:57:32;;;;;;;;;;;;;;;;;;5082026;28;1298;-63
2022/07/01 03:59:57;;;;;;;;;;;;;;;;;;5082067;28;1027;-64
2022/07/01 04:02:22;;;;;;;;;;;;;;;;;;5081957;28;1885;-64
2022/07/01 04:04:47;;;;;;;;;;;;;;;;;;5081926;28;984;-64
2022/07/01 04:07:12;;;;;;;;;;;;;;;;;;5081828;28;1265;-64
2022/07/01 04:09:38;;;;;;;;;;;;;;;;;;5081939;28;802;-63
2022/07/01 04:12:03;;;;;;;;;;;;;;;;;;5082290;28;850;-64
2022/07/01 04:14:29;;;;;;;;;;;;;;;;;;5081729;28;1213;-63
2022/07/01 04:16:54;;;;;;;;;;;;;;;;;;5081452;28;1211;-63
2022/07/01 04:19:20;;;;;;;;;;;;;;;;;;5082112;28;803;-64
2022/07/01 04:24:32;;;;;;;;;;;;;;;;;;5081747;28;733;-63
2022/07/01 04:26:57;;;;;;;;;;;;;;;;;;5080012;28;1195;-63
2022/07/01 04:29:22;;;;;;;;;;;;;;;;;;5081767;28;976;-63
2022/07/01 04:31:48;;;;;;;;;;;;;;;;;;5081464;28;933;-64
2022/07/01 04:34:13;;;;;;;;;;;;;;;;;;5081645;28;964;-63
2022/07/01 04:36:38;;;;;;;;;;;;;;;;;;5081178;28;1215;-64
2022/07/01 04:39:04;;;;;;;;;;;;;;;;;;5081725;28;794;-64
2022/07/01 04:44:13;;;;;;;;;;;;;;;;;;5081961;28;565;-64
2022/07/01 04:46:38;;;;;;;;;;;;;;;;;;5080992;28;1129;-64
2022/07/01 04:49:03;;;;;;;;;;;;;;;;;;5081567;28;1112;-64
2022/07/01 04:51:29;;;;;;;;;;;;;;;;;;5081319;28;837;-64
2022/07/01 04:53:54;;;;;;;;;;;;;;;;;;5081499;28;952;-64
2022/07/01 04:56:19;;;;;;;;;;;;;;;;;;5081116;28;1187;-64
2022/07/01 04:58:45;;;;;;;;;;;;;;;;;;5081231;28;857;-64
2022/07/01 05:01:10;;;;;;;;;;;;;;;;;;5081536;28;822;-64
2022/07/01 05:03:35;;;;;;;;;;;;;;;;;;5081074;28;1897;-64
2022/07/01 05:06:00;;;;;;;;;;;;;;;;;;5081167;28;1188;-64
2022/07/01 05:08:26;;;;;;;;;;;;;;;;;;5080852;28;838;-64
2022/07/01 05:10:51;;;;;;;;;;;;;;;;;;5081514;28;779;-64
2022/07/01 05:13:16;;;;;;;;;;;;;;;;;;5080940;28;889;-64
2022/07/01 05:15:41;;;;;;;;;;;;;;;;;;5081011;28;937;-64
2022/07/01 05:23:35;;;;;;;;;;;;;;;;;;5080758;28;1894;-64
2022/07/01 05:26:00;;;;;;;;;;;;;;;;;;5080868;28;1278;-63
2022/07/01 05:28:26;;;;;;;;;;;;;;;;;;5080617;28;980;-63
2022/07/01 05:30:51;;;;;;;;;;;;;;;;;;5080851;28;917;-64
2022/07/01 05:33:17;;;;;;;;;;;;;;;;;;5082213;28;980;-64
2022/07/01 05:35:43;;;;;;;;;;;;;;;;;;5084084;28;945;-63
2022/07/01 05:38:08;;;;;;;;;;;;;;;;;;5084002;28;1304;-64
2022/07/01 05:40:33;;;;;;;;;;;;;;;;;;5084164;28;928;-63
2022/07/01 05:42:58;;;;;;;;;;;;;;;;;;5084813;28;1901;-63
2022/07/01 05:45:23;;;;;;;;;;;;;;;;;;5084010;28;1023;-63
2022/07/01 05:47:49;;;;;;;;;;;;;;;;;;5084068;28;1263;-63
2022/07/01 05:50:15;;;;;;;;;;;;;;;;;;5083966;28;920;-63
2022/07/01 05:52:42;;;;;;;;;;;;;;;;;;5084187;28;853;-63
2022/07/01 05:55:07;;;;;;;;;;;;;;;;;;5082571;28;1096;-63
2022/07/01 05:57:32;;;;;;;;;;;;;;;;;;5083749;28;1286;-64
2022/07/01 05:59:58;;;;;;;;;;;;;;;;;;5084130;28;798;-64
2022/07/01 06:02:23;;;;;;;;;;;;;;;;;;5083570;28;1964;-63
2022/07/01 06:04:48;;;;;;;;;;;;;;;;;;5084047;28;850;-63
2022/07/01 06:07:13;;;;;;;;;;;;;;;;;;5083215;28;1179;-63
2022/07/01 06:09:39;;;;;;;;;;;;;;;;;;5083985;28;782;-64
2022/07/01 06:12:04;;;;;;;;;;;;;;;;;;5083635;28;973;-63
2022/07/01 06:14:29;;;;;;;;;;;;;;;;;;5083866;28;973;-63
2022/07/01 06:16:55;;;;;;;;;;;;;;;;;;5083720;28;1168;-63
2022/07/01 06:19:20;;;;;;;;;;;;;;;;;;5083955;28;877;-64
2022/07/01 06:21:45;;;;;;;;;;;;;;;;;;5083653;28;1965;-63
2022/07/01 06:24:10;;;;;;;;;;;;;;;;;;5083667;28;889;-63
2022/07/01 06:26:36;;;;;;;;;;;;;;;;;;5083258;28;1203;-63
2022/07/01 06:29:01;;;;;;;;;;;;;;;;;;5083482;28;810;-64
2022/07/01 06:31:26;;;;;;;;;;;;;;;;;;5082360;28;1633;-63
2022/07/01 06:33:51;;;;;;;;;;;;;;;;;;5083181;28;913;-64
2022/07/01 06:36:16;;;;;;;;;;;;;;;;;;5083230;28;1199;-63
2022/07/01 06:38:42;;;;;;;;;;;;;;;;;;5083251;28;897;-64
2022/07/01 06:43:51;;;;;;;;;;;;;;;;;;5082672;28;1901;-64
2022/07/01 06:46:16;;;;;;;;;;;;;;;;;;5082422;28;1259;-64
2022/07/01 06:48:41;;;;;;;;;;;;;;;;;;5083165;28;798;-64
2022/07/01 06:51:06;;;;;;;;;;;;;;;;;;5083309;28;798;-64
2022/07/01 06:53:32;;;;;;;;;;;;;;;;;;5083188;28;988;-64
2022/07/01 06:55:57;;;;;;;;;;;;;;;;;;5083095;28;881;-64
2022/07/01 06:58:22;;;;;;;;;;;;;;;;;;5082938;28;1270;-64
2022/07/01 07:00:47;;;;;;;;;;;;;;;;;;5081722;28;1631;-63
2022/07/01 07:03:13;;;;;;;;;;;;;;;;;;5083104;28;1948;-63
2022/07/01 07:05:38;;;;;;;;;;;;;;;;;;5082670;28;921;-63
2022/07/01 07:08:03;;;;;;;;;;;;;;;;;;5082693;28;1136;-63
2022/07/01 07:10:29;;;;;;;;;;;;;;;;;;5082748;28;984;-63
2022/07/01 07:12:54;;;;;;;;;;;;;;;;;;5083002;28;834;-64
2022/07/01 07:15:19;;;;;;;;;;;;;;;;;;5082660;28;861;-64
2022/07/01 07:17:45;;;;;;;;;;;;;;;;;;5082634;28;1207;-63
2022/07/01 07:20:10;;;;;;;;;;;;;;;;;;5082603;28;913;-64
2022/07/01 07:22:35;;;;;;;;;;;;;;;;;;5082765;28;1902;-63
2022/07/01 07:25:00;;;;;;;;;;;;;;;;;;5082755;28;917;-64
2022/07/01 07:27:26;;;;;;;;;;;;;;;;;;5081988;28;1278;-64
2022/07/01 07:29:51;;;;;;;;;;;;;;;;;;5081463;28;965;-63
2022/07/01 07:32:16;;;;;;;;;;;;;;;;;;5082470;28;805;-63
2022/07/01 07:34:41;;;;;;;;;;;;;;;;;;5082441;28;853;-63
2022/07/01 07:37:06;;;;;;;;;;;;;;;;;;5082007;28;1200;-64
2022/07/01 07:39:32;;;;;;;;;;;;;;;;;;5082873;28;814;-63
2022/07/01 07:41:57;;;;;;;;;;;;;;;;;;5082123;28;1902;-63
2022/07/01 07:44:22;;;;;;;;;;;;;;;;;;5082501;28;786;-64
2022/07/01 07:46:48;;;;;;;;;;;;;;;;;;5080716;28;1180;-63
2022/07/01 07:49:13;;;;;;;;;;;;;;;;;;5082382;28;909;-64
2022/07/01 07:51:38;;;;;;;;;;;;;;;;;;5082212;28;869;-64
2022/07/01 07:54:03;;;;;;;;;;;;;;;;;;5082145;28;980;-64
2022/07/01 07:56:29;;;;;;;;;;;;;;;;;;5081428;28;1180;-64
2022/07/01 07:58:54;;;;;;;;;;;;;;;;;;5081957;28;1113;-64
2022/07/01 08:01:20;;;;;;;;;;;;;;;;;;5082161;28;1003;-63
2022/07/01 08:03:45;;;;;;;;;;;;;;;;;;5081893;28;1893;-63
2022/07/01 08:06:10;;;;;;;;;;;;;;;;;;5081811;28;1203;-63
2022/07/01 08:08:36;;;;;;;;;;;;;;;;;;5081797;28;830;-63
2022/07/01 08:11:01;;;;;;;;;;;;;;;;;;5082101;28;976;-63
2022/07/01 08:13:26;;;;;;;;;;;;;;;;;;5081845;28;834;-63
2022/07/01 08:15:51;;;;;;;;;;;;;;;;;;5082009;28;992;-64
2022/07/01 08:18:16;;;;;;;;;;;;;;;;;;5080446;28;1257;-63
2022/07/01 08:20:42;;;;;;;;;;;;;;;;;;5081668;28;810;-64
2022/07/01 08:23:07;;;;;;;;;;;;;;;;;;5081833;28;1894;-64
2022/07/01 08:25:32;;;;;;;;;;;;;;;;;;5081618;28;1168;-64
2022/07/01 08:27:57;;;;;;;;;;;;;;;;;;5081398;28;1247;-63
2022/07/01 08:30:22;;;;;;;;;;;;;;;;;;5081596;28;844;-63
2022/07/01 08:32:48;;;;;;;;;;;;;;;;;;5081728;28;866;-64
2022/07/01 08:35:13;;;;;;;;;;;;;;;;;;5081228;28;928;-64
2022/07/01 08:37:38;;;;;;;;;;;;;;;;;;5081407;28;1278;-63
2022/07/01 08:40:03;;;;;;;;;;;;;;;;;;5081894;28;956;-63
2022/07/01 08:42:28;;;;;;;;;;;;;;;;;;5081506;28;1890;-63
2022/07/01 08:44:54;;;;;;;;;;;;;;;;;;5081674;28;841;-63
2022/07/01 08:47:19;;;;;;;;;;;;;;;;;;5080995;28;1200;-63
2022/07/01 08:49:44;;;;;;;;;;;;;;;;;;5081467;28;984;-64
2022/07/01 08:52:10;;;;;;;;;;;;;;;;;;5081270;28;822;-64
2022/07/01 08:54:37;;;;;;;;;;;;;;;;;;5081698;28;782;-64
2022/07/01 08:57:02;;;;;;;;;;;;;;;;;;5080736;28;1203;-64
2022/07/01 08:59:28;;;;;;;;;;;;;;;;;;5081473;28;1175;-64
2022/07/01 09:02:01;;;;;;;;;;;;;;;;;;5081052;28;1910;-64
2022/07/01 09:04:26;;;;;;;;;;;;;;;;;;5081295;28;873;-64
2022/07/01 09:06:57;;;;;;;;;;;;;;;;;;5080670;28;1291;-64
2022/07/01 09:09:22;;;;;;;;;;;;;;;;;;5080738;28;972;-63
2022/07/01 09:11:54;;;;;;;;;;;;;;;;;;5081009;28;878;-63
2022/07/01 09:14:21;;;;;;;;;;;;;;;;;;5081205;28;865;-64
2022/07/01 09:16:48;;;;;;;;;;;;;;;;;;5080413;28;1204;-63
2022/07/01 09:19:14;;;;;;;;;;;;;;;;;;5081053;28;892;-64
2022/07/01 09:21:40;;;;;;;;;;;;;;;;;;5081128;28;898;-63
2022/07/01 09:24:21;;;;;;;;;;;;;;;;;;5080765;28;1901;-64
2022/07/01 09:26:56;;;;;;;;;;;;;;;;;;5080665;28;1282;-63
2022/07/01 09:29:25;;;;;;;;;;;;;;;;;;5081046;28;893;-64
2022/07/01 09:31:50;;;;;;;;;;;;;;;;;;5080967;28;885;-63
2022/07/01 09:34:15;;;;;;;;;;;;;;;;;;5080872;28;806;-63
2022/07/01 09:36:40;;;;;;;;;;;;;;;;;;5080744;28;1227;-63
2022/07/01 09:39:06;;;;;;;;;;;;;;;;;;5080729;28;798;-63
2022/07/01 09:41:37;;;;;;;;;;;;;;;;;;5080946;28;837;-64
2022/07/01 09:44:09;;;;;;;;;;;;;;;;;;5080761;28;1902;-63
2022/07/01 09:46:35;;;;;;;;;;;;;;;;;;5080593;28;1160;-64
2022/07/01 09:49:00;;;;;;;;;;;;;;;;;;5080552;28;803;-63
2022/07/01 09:51:25;;;;;;;;;;;;;;;;;;5080686;28;906;-63
2022/07/01 09:53:51;;;;;;;;;;;;;;;;;;5080916;28;901;-64
2022/07/01 09:56:16;;;;;;;;;;;;;;;;;;5080267;28;1270;-63
2022/07/01 09:58:42;;;;;;;;;;;;;;;;;;5080451;28;818;-63
2022/07/01 10:01:12;;;;;;;;;;;;;;;;;;5080406;28;838;-63
2022/07/01 10:03:39;;;;;;;;;;;;;;;;;;5080759;28;1956;-63
2022/07/01 10:06:07;;;;;;;;;;;;;;;;;;5080326;28;1258;-63
2022/07/01 10:08:58;;;;;;;;;;;;;;;;;;5080218;28;822;-63
2022/07/01 10:11:34;;;;;;;;;;;;;;;;;;5080303;28;853;-63
2022/07/01 10:14:02;;;;;;;;;;;;;;;;;;5080494;28;846;-63
2022/07/01 10:16:27;;;;;;;;;;;;;;;;;;5079969;28;1262;-63
2022/07/01 10:18:54;;;;;;;;;;;;;;;;;;5081087;28;866;-63
2022/07/01 10:21:29;;;;;;;;;;;;;;;;;;5083581;28;885;-63
2022/07/01 10:24:14;;;;;;;;;;;;;;;;;;5083824;28;1885;-63
2022/07/01 10:26:40;;;;;;;;;;;;;;;;;;5083090;28;1244;-63
2022/07/01 10:29:25;;;;;;;;;;;;;;;;;;5083878;28;873;-63
2022/07/01 10:31:50;;;;;;;;;;;;;;;;;;5083239;28;1829;-63
2022/07/01 10:34:15;;;;;;;;;;;;;;;;;;5083672;28;873;-63
2022/07/01 10:36:41;;;;;;;;;;;;;;;;;;5083161;28;1195;-63
2022/07/01 10:39:06;;;;;;;;;;;;;;;;;;5083583;28;1039;-63
2022/07/01 10:41:40;;;;;;;;;;;;;;;;;;5083484;28;837;-63
2022/07/01 10:44:08;;;;;;;;;;;;;;;;;;5083389;28;1961;-64
2022/07/01 10:46:45;;;;;;;;;;;;;;;;;;5083080;28;1180;-64
2022/07/01 10:49:21;;;;;;;;;;;;;;;;;;5083042;28;889;-64
2022/07/01 10:51:50;;;;;;;;;;;;;;;;;;5083417;28;880;-63
2022/07/01 10:54:45;;;;;;;;;;;;;;;;;;5083212;28;829;-63
2022/07/01 10:57:19;;;;;;;;;;;;;;;;;;5082797;28;1196;-63
2022/07/01 10:59:48;;;;;;;;;;;;;;;;;;5083065;28;952;-63
2022/07/01 11:02:20;;;;;;;;;;;;;;;;;;5083141;28;1897;-63
2022/07/01 11:04:46;;;;;;;;;;;;;;;;;;5082990;28;853;-63
2022/07/01 11:07:11;;;;;;;;;;;;;;;;;;5082804;28;1254;-63
2022/07/01 11:09:37;;;;;;;;;;;;;;;;;;5082752;28;984;-63
2022/07/01 11:12:02;;;;;;;;;;;;;;;;;;5083057;28;964;-63
2022/07/01 11:14:28;;;;;;;;;;;;;;;;;;5082864;28;953;-63
2022/07/01 11:16:54;;;;;;;;;;;;;;;;;;5082869;28;1172;-63
2022/07/01 11:19:19;;;;;;;;;;;;;;;;;;5082713;28;928;-63
2022/07/01 11:21:51;;;;;;;;;;;;;;;;;;5081573;28;954;-64
2022/07/01 11:24:16;;;;;;;;;;;;;;;;;;5082708;28;818;-63
2022/07/01 11:26:42;;;;;;;;;;;;;;;;;;5082412;28;1181;-63
2022/07/01 11:29:09;;;;;;;;;;;;;;;;;;5082742;28;948;-63
2022/07/01 11:31:34;;;;;;;;;;;;;;;;;;5081828;28;1000;-64
2022/07/01 11:34:00;;;;;;;;;;;;;;;;;;5082533;28;905;-63
2022/07/01 11:39:24;;;;;;;;;;;;;;;;;;5083011;28;660;-64
2022/07/01 11:41:56;;;;;;;;;;;;;;;;;;5082330;28;1889;-64
2022/07/01 11:44:36;;;;;;;;;;;;;;;;;;5082585;28;886;-64
2022/07/01 11:47:02;;;;;;;;;;;;;;;;;;5081950;28;1282;-64
2022/07/01 11:49:28;;;;;;;;;;;;;;;;;;5082119;28;1152;-63
2022/07/01 11:51:54;;;;;;;;;;;;;;;;;;5082153;28;885;-63
2022/07/01 11:54:21;;;;;;;;;;;;;;;;;;5082566;28;794;-63
2022/07/01 11:56:46;;;;;;;;;;;;;;;;;;5080357;28;1223;-64
2022/07/01 11:59:12;;;;;;;;;;;;;;;;;;5082341;28;913;-63
2022/07/01 12:01:40;;;;;;;;;;;;;;;;;;5081875;28;936;-63
2022/07/01 12:04:08;;;;;;;;;;;;;;;;;;5082240;28;1913;-64
2022/07/01 12:06:34;;;;;;;;;;;;;;;;;;5081813;28;1136;-63
2022/07/01 12:08:59;;;;;;;;;;;;;;;;;;5081723;28;1128;-63
2022/07/01 12:11:26;;;;;;;;;;;;;;;;;;5082077;28;937;-63
2022/07/01 12:13:52;;;;;;;;;;;;;;;;;;5081916;28;875;-63
2022/07/01 12:16:18;;;;;;;;;;;;;;;;;;5081659;28;1256;-63
2022/07/01 12:18:57;;;;;;;;;;;;;;;;;;5080401;28;1635;-63
2022/07/01 12:21:23;;;;;;;;;;;;;;;;;;5081839;28;912;-63
2022/07/01 12:24:07;;;;;;;;;;;;;;;;;;5081696;28;2254;-63
2022/07/01 12:26:32;;;;;;;;;;;;;;;;;;5081569;28;1271;-63
2022/07/01 12:28:58;;;;;;;;;;;;;;;;;;5081483;28;786;-63
2022/07/01 12:31:23;;;;;;;;;;;;;;;;;;5081859;28;881;-63
2022/07/01 12:33:49;;;;;;;;;;;;;;;;;;5081436;28;961;-63
2022/07/01 12:36:15;;;;;;;;;;;;;;;;;;5080257;28;1457;-63
2022/07/01 12:38:41;;;;;;;;;;;;;;;;;;5081712;28;818;-63
2022/07/01 12:41:25;;;;;;;;;;;;;;;;;;5081529;28;826;-64
2022/07/01 12:43:50;;;;;;;;;;;;;;;;;;5080382;28;1905;-64
2022/07/01 12:46:26;;;;;;;;;;;;;;;;;;5081259;28;1186;-64
2022/07/01 12:48:51;;;;;;;;;;;;;;;;;;5081602;28;1171;-63
2022/07/01 12:51:16;;;;;;;;;;;;;;;;;;5081239;28;944;-64
2022/07/01 12:53:41;;;;;;;;;;;;;;;;;;5081429;28;877;-63
2022/07/01 12:56:07;;;;;;;;;;;;;;;;;;5081142;28;1214;-64
2022/07/01 12:58:32;;;;;;;;;;;;;;;;;;5079967;28;1028;-64
2022/07/01 13:00:58;;;;;;;;;;;;;;;;;;5081195;28;881;-63
2022/07/01 13:03:24;;;;;;;;;;;;;;;;;;5081313;28;1901;-64
2022/07/01 13:05:50;;;;;;;;;;;;;;;;;;5081073;28;858;-64
2022/07/01 13:08:16;;;;;;;;;;;;;;;;;;5080837;28;1273;-63
2022/07/01 13:10:41;;;;;;;;;;;;;;;;;;5081183;28;957;-63
2022/07/01 13:13:07;;;;;;;;;;;;;;;;;;5079990;28;1285;-63
2022/07/01 13:15:32;;;;;;;;;;;;;;;;;;5081165;28;830;-63
2022/07/01 13:17:58;;;;;;;;;;;;;;;;;;5080580;28;1263;-63
2022/07/01 13:20:23;;;;;;;;;;;;;;;;;;5081015;28;813;-63
2022/07/01 13:22:48;;;;;;;;;;;;;;;;;;5080860;28;1965;-63
2022/07/01 13:25:14;;;;;;;;;;;;;;;;;;5081098;28;858;-63
2022/07/01 13:27:40;;;;;;;;;;;;;;;;;;5080704;28;1250;-63
2022/07/01 13:30:06;;;;;;;;;;;;;;;;;;5081033;28;831;-63
2022/07/01 13:32:31;;;;;;;;;;;;;;;;;;5081026;28;787;-63
2022/07/01 13:34:56;;;;;;;;;;;;;;;;;;5080612;28;952;-63
2022/07/01 13:37:21;;;;;;;;;;;;;;;;;;5080363;28;1188;-63
2022/07/01 13:39:47;;;;;;;;;;;;;;;;;;5080828;28;1047;-63
2022/07/01 13:42:12;;;;;;;;;;;;;;;;;;5080648;28;1902;-63
2022/07/01 13:44:37;;;;;;;;;;;;;;;;;;5081015;28;1039;-63
2022/07/01 13:47:05;;;;;;;;;;;;;;;;;;5080463;28;1263;-63
2022/07/01 13:49:30;;;;;;;;;;;;;;;;;;5080564;28;861;-63
2022/07/01 13:51:56;;;;;;;;;;;;;;;;;;5080555;28;810;-63
2022/07/01 13:54:21;;;;;;;;;;;;;;;;;;5081912;28;882;-63
2022/07/01 13:56:46;;;;;;;;;;;;;;;;;;5083891;28;1203;-63
2022/07/01 13:59:11;;;;;;;;;;;;;;;;;;5082603;28;1165;-63
2022/07/01 14:01:37;;;;;;;;;;;;;;;;;;5084143;28;838;-64
2022/07/01 14:04:02;;;;;;;;;;;;;;;;;;5083844;28;1960;-63
2022/07/01 14:06:27;;;;;;;;;;;;;;;;;;5083567;28;1265;-63
2022/07/01 14:08:53;;;;;;;;;;;;;;;;;;5083884;28;801;-63
2022/07/01 14:11:18;;;;;;;;;;;;;;;;;;5083801;28;984;-63
2022/07/01 14:13:43;;;;;;;;;;;;;;;;;;5083959;28;873;-63
2022/07/01 14:16:08;;;;;;;;;;;;;;;;;;5083553;28;1247;-63
2022/07/01 14:18:34;;;;;;;;;;;;;;;;;;5083822;28;817;-64
2022/07/01 14:21:00;;;;;;;;;;;;;;;;;;5082149;28;814;-64
2022/07/01 14:23:25;;;;;;;;;;;;;;;;;;5082406;28;1898;-64
2022/07/01 14:25:50;;;;;;;;;;;;;;;;;;5083716;28;861;-63
2022/07/01 14:28:15;;;;;;;;;;;;;;;;;;5083645;28;1176;-64
2022/07/01 14:30:41;;;;;;;;;;;;;;;;;;5083314;28;905;-64
2022/07/01 14:33:06;;;;;;;;;;;;;;;;;;5083533;28;822;-64
2022/07/01 14:35:31;;;;;;;;;;;;;;;;;;5083329;28;834;-64
2022/07/01 14:37:58;;;;;;;;;;;;;;;;;;5083364;28;1286;-64
2022/07/01 14:40:23;;;;;;;;;;;;;;;;;;5083629;28;833;-63
2022/07/01 14:42:48;;;;;;;;;;;;;;;;;;5083284;28;1894;-64
2022/07/01 14:45:14;;;;;;;;;;;;;;;;;;5083467;28;897;-63
2022/07/01 14:47:40;;;;;;;;;;;;;;;;;;5082912;28;1187;-64
2022/07/01 14:50:05;;;;;;;;;;;;;;;;;;5083327;28;849;-64
2022/07/01 14:52:30;;;;;;;;;;;;;;;;;;5083136;28;925;-64
2022/07/01 14:54:56;;;;;;;;;;;;;;;;;;5083358;28;840;-64
2022/07/01 14:57:21;;;;;;;;;;;;;;;;;;5082874;28;1156;-64
2022/07/01 14:59:46;;;;;;;;;;;;;;;;;;5083505;28;865;-63
2022/07/01 15:02:11;;;;;;;;;;;;;;;;;;5082899;28;1953;-63
2022/07/01 15:04:39;;;;;;;;;;;;;;;;;;5083154;28;878;-64
2022/07/01 15:07:05;;;;;;;;;;;;;;;;;;5081715;28;1152;-63
2022/07/01 15:09:30;;;;;;;;;;;;;;;;;;5083186;28;755;-64
2022/07/01 15:11:56;;;;;;;;;;;;;;;;;;5083186;28;822;-64
2022/07/01 15:14:21;;;;;;;;;;;;;;;;;;5082857;28;886;-63
2022/07/01 15:16:46;;;;;;;;;;;;;;;;;;5082632;28;1168;-63
2022/07/01 15:19:11;;;;;;;;;;;;;;;;;;5082720;28;972;-63
2022/07/01 15:21:37;;;;;;;;;;;;;;;;;;5082703;28;917;-63
2022/07/01 15:24:02;;;;;;;;;;;;;;;;;;5082680;28;1866;-63
2022/07/01 15:26:27;;;;;;;;;;;;;;;;;;5082509;28;1283;-63
2022/07/01 15:28:52;;;;;;;;;;;;;;;;;;5082618;28;897;-63
2022/07/01 15:31:18;;;;;;;;;;;;;;;;;;5082702;28;822;-63
2022/07/01 15:33:43;;;;;;;;;;;;;;;;;;5082461;28;881;-63
2022/07/01 15:36:10;;;;;;;;;;;;;;;;;;5082511;28;1278;-63
2022/07/01 15:38:35;;;;;;;;;;;;;;;;;;5082707;28;825;-63
2022/07/01 15:41:00;;;;;;;;;;;;;;;;;;5082406;28;844;-63
2022/07/01 15:43:27;;;;;;;;;;;;;;;;;;5082753;28;1910;-63
2022/07/01 15:45:52;;;;;;;;;;;;;;;;;;5082162;28;1806;-63
2022/07/01 15:48:17;;;;;;;;;;;;;;;;;;5082172;28;1231;-63
2022/07/01 15:50:42;;;;;;;;;;;;;;;;;;5081952;28;798;-63
2022/07/01 15:53:08;;;;;;;;;;;;;;;;;;5082476;28;965;-63
2022/07/01 15:55:34;;;;;;;;;;;;;;;;;;5082330;28;861;-63
2022/07/01 15:58:00;;;;;;;;;;;;;;;;;;5080773;28;1227;-63
2022/07/01 16:00:25;;;;;;;;;;;;;;;;;;5082193;28;809;-63
2022/07/01 16:02:51;;;;;;;;;;;;;;;;;;5082070;28;1898;-63
2022/07/01 16:05:16;;;;;;;;;;;;;;;;;;5082199;28;940;-63
2022/07/01 16:07:42;;;;;;;;;;;;;;;;;;5081783;28;1267;-63
2022/07/01 16:10:16;;;;;;;;;;;;;;;;;;5081952;28;1221;-63
2022/07/01 16:12:42;;;;;;;;;;;;;;;;;;5081951;28;960;-63
2022/07/01 16:15:09;;;;;;;;;;;;;;;;;;5080817;28;877;-63
2022/07/01 16:17:35;;;;;;;;;;;;;;;;;;5080215;28;1243;-64
2022/07/01 16:20:02;;;;;;;;;;;;;;;;;;5082191;28;786;-63
2022/07/01 16:22:27;;;;;;;;;;;;;;;;;;5081551;28;1968;-64
2022/07/01 16:24:53;;;;;;;;;;;;;;;;;;5082007;28;794;-63
2022/07/01 16:27:20;;;;;;;;;;;;;;;;;;5081504;28;1176;-63
2022/07/01 16:29:46;;;;;;;;;;;;;;;;;;5081918;28;798;-63
2022/07/01 16:32:14;;;;;;;;;;;;;;;;;;5081537;28;1043;-63
2022/07/01 16:34:40;;;;;;;;;;;;;;;;;;5081551;28;893;-63
2022/07/01 16:37:08;;;;;;;;;;;;;;;;;;5081488;28;1140;-63
2022/07/01 16:39:34;;;;;;;;;;;;;;;;;;5081731;28;893;-63
2022/07/01 16:42:00;;;;;;;;;;;;;;;;;;5080281;28;1286;-63
2022/07/01 16:44:40;;;;;;;;;;;;;;;;;;5081417;28;854;-63
2022/07/01 16:47:06;;;;;;;;;;;;;;;;;;5081201;28;1270;-63
2022/07/01 16:49:32;;;;;;;;;;;;;;;;;;5081391;28;953;-63
2022/07/01 16:52:00;;;;;;;;;;;;;;;;;;5081498;28;766;-63
2022/07/01 16:54:28;;;;;;;;;;;;;;;;;;5081331;28;881;-63
2022/07/01 16:56:54;;;;;;;;;;;;;;;;;;5081314;28;1263;-63
2022/07/01 16:59:20;;;;;;;;;;;;;;;;;;5081130;28;814;-63
2022/07/01 17:01:47;;;;;;;;;;;;;;;;;;5081216;28;985;-64
2022/07/01 17:04:12;;;;;;;;;;;;;;;;;;5081212;28;1894;-63
2022/07/01 17:06:37;;;;;;;;;;;;;;;;;;5079691;28;1249;-63
2022/07/01 17:09:02;;;;;;;;;;;;;;;;;;5080149;28;893;-63
2022/07/01 17:11:28;;;;;;;;;;;;;;;;;;5080987;28;782;-63
2022/07/01 17:13:55;;;;;;;;;;;;;;;;;;5081208;28;893;-63
2022/07/01 17:16:20;;;;;;;;;;;;;;;;;;5080651;28;1174;-64
2022/07/01 17:18:46;;;;;;;;;;;;;;;;;;5081255;28;921;-64
2022/07/01 17:21:13;;;;;;;;;;;;;;;;;;5080876;28;790;-64
2022/07/01 17:23:43;;;;;;;;;;;;;;;;;;5081036;28;1983;-64